sensor_id;sensor_type;location;lat;lon;timestamp;pressure;altitude;pressure_sealevel;temperature;humidity
68141;BME280;54941;52.220;104.306;2023-05-07T00:01:12;96992.31;;;6.93;50.45
68141;BME280;54941;52.220;104.306;2023-05-07T00:03:38;96983.53;;;6.82;50.99
68141;BME280;54941;52.220;104.306;2023-05-07T00:06:04;96992.28;;;6.75;51.26
68141;BME280;54941;52.220;104.306;2023-05-07T00:08:31;96989.66;;;6.72;51.25
68141;BME280;54941;52.220;104.306;2023-05-07T00:10:57;96991.31;;;6.58;51.49
68141;BME280;54941;52.220;104.306;2023-05-07T00:13:23;96992.19;;;6.54;52.14
68141;BME280;54941;52.220;104.306;2023-05-07T00:15:51;96998.28;;;6.45;52.03
68141;BME280;54941;52.220;104.306;2023-05-07T00:18:17;96996.47;;;6.32;53.23
68141;BME280;54941;52.220;104.306;2023-05-07T00:20:44;97000.88;;;6.40;52.76
68141;BME280;54941;52.220;104.306;2023-05-07T00:23:10;97006.97;;;6.36;52.53
68141;BME280;54941;52.220;104.306;2023-05-07T00:25:36;97008.78;;;6.42;51.59
68141;BME280;54941;52.220;104.306;2023-05-07T00:28:03;97011.56;;;6.92;50.08
68141;BME280;54941;52.220;104.306;2023-05-07T00:30:29;97002.84;;;6.98;49.57
68141;BME280;54941;52.220;104.306;2023-05-07T00:32:57;97009.94;;;7.32;49.07
68141;BME280;54941;52.220;104.306;2023-05-07T00:35:24;97018.69;;;7.85;48.39
68141;BME280;54941;52.220;104.306;2023-05-07T00:37:50;97010.72;;;8.51;47.04
68141;BME280;54941;52.220;104.306;2023-05-07T00:40:17;97011.69;;;9.87;43.59
68141;BME280;54941;52.220;104.306;2023-05-07T00:42:46;97007.13;;;11.51;40.69
68141;BME280;54941;52.220;104.306;2023-05-07T00:45:13;96999.97;;;12.61;38.56
68141;BME280;54941;52.220;104.306;2023-05-07T00:47:39;96999.72;;;13.16;36.69
68141;BME280;54941;52.220;104.306;2023-05-07T00:50:09;97003.50;;;13.46;36.49
68141;BME280;54941;52.220;104.306;2023-05-07T00:52:37;96988.44;;;14.19;35.72
68141;BME280;54941;52.220;104.306;2023-05-07T00:55:05;96997.34;;;15.14;33.88
68141;BME280;54941;52.220;104.306;2023-05-07T00:57:33;96988.59;;;15.96;32.85
68141;BME280;54941;52.220;104.306;2023-05-07T01:00:02;96993.38;;;16.13;31.45
68141;BME280;54941;52.220;104.306;2023-05-07T01:02:32;96988.75;;;17.18;29.99
68141;BME280;54941;52.220;104.306;2023-05-07T01:04:59;96986.25;;;16.14;31.62
68141;BME280;54941;52.220;104.306;2023-05-07T01:07:28;96989.44;;;15.97;31.32
68141;BME280;54941;52.220;104.306;2023-05-07T01:09:55;96993.56;;;16.85;30.55
68141;BME280;54941;52.220;104.306;2023-05-07T01:12:23;96987.19;;;17.81;29.04
68141;BME280;54941;52.220;104.306;2023-05-07T01:14:50;96987.09;;;18.06;28.51
68141;BME280;54941;52.220;104.306;2023-05-07T01:17:16;96988.06;;;18.46;27.95
68141;BME280;54941;52.220;104.306;2023-05-07T01:19:43;96987.97;;;18.69;26.83
68141;BME280;54941;52.220;104.306;2023-05-07T01:22:10;96986.97;;;18.92;26.93
68141;BME280;54941;52.220;104.306;2023-05-07T01:24:39;96989.25;;;18.38;27.36
68141;BME280;54941;52.220;104.306;2023-05-07T01:27:05;96988.31;;;18.82;27.13
68141;BME280;54941;52.220;104.306;2023-05-07T01:29:31;96982.41;;;18.74;27.03
68141;BME280;54941;52.220;104.306;2023-05-07T01:31:59;96981.69;;;18.90;27.46
68141;BME280;54941;52.220;104.306;2023-05-07T01:34:28;96981.09;;;19.79;25.87
68141;BME280;54941;52.220;104.306;2023-05-07T01:36:55;96980.66;;;19.13;26.35
68141;BME280;54941;52.220;104.306;2023-05-07T01:39:22;96976.56;;;19.05;26.33
68141;BME280;54941;52.220;104.306;2023-05-07T01:41:51;96975.16;;;19.35;26.35
68141;BME280;54941;52.220;104.306;2023-05-07T01:44:18;96969.59;;;20.67;24.64
68141;BME280;54941;52.220;104.306;2023-05-07T01:46:45;96977.00;;;21.30;23.33
68141;BME280;54941;52.220;104.306;2023-05-07T01:49:12;96968.00;;;20.63;24.38
68141;BME280;54941;52.220;104.306;2023-05-07T01:51:39;96979.78;;;19.13;26.42
68141;BME280;54941;52.220;104.306;2023-05-07T01:54:06;96971.63;;;19.35;25.45
68141;BME280;54941;52.220;104.306;2023-05-07T01:56:32;96965.50;;;20.24;24.59
68141;BME280;54941;52.220;104.306;2023-05-07T01:59:00;96970.69;;;19.73;25.55
68141;BME280;54941;52.220;104.306;2023-05-07T02:01:26;96975.81;;;20.67;24.81
68141;BME280;54941;52.220;104.306;2023-05-07T02:03:52;96966.16;;;20.29;24.88
68141;BME280;54941;52.220;104.306;2023-05-07T02:06:19;96966.19;;;19.74;25.88
68141;BME280;54941;52.220;104.306;2023-05-07T02:08:45;96969.19;;;20.75;24.99
68141;BME280;54941;52.220;104.306;2023-05-07T02:11:11;96969.97;;;20.59;24.35
68141;BME280;54941;52.220;104.306;2023-05-07T02:13:38;96971.72;;;20.78;24.57
68141;BME280;54941;52.220;104.306;2023-05-07T02:16:07;96961.00;;;21.60;24.29
68141;BME280;54941;52.220;104.306;2023-05-07T02:18:34;96978.88;;;20.60;25.30
68141;BME280;54941;52.220;104.306;2023-05-07T02:21:00;96963.22;;;22.46;23.21
68141;BME280;54941;52.220;104.306;2023-05-07T02:23:27;96971.84;;;23.40;22.79
68141;BME280;54941;52.220;104.306;2023-05-07T02:25:53;96967.91;;;22.73;23.18
68141;BME280;54941;52.220;104.306;2023-05-07T02:28:19;96962.59;;;21.79;24.56
68141;BME280;54941;52.220;104.306;2023-05-07T02:30:46;96967.28;;;23.97;22.01
68141;BME280;54941;52.220;104.306;2023-05-07T02:33:13;96957.69;;;24.06;22.22
68141;BME280;54941;52.220;104.306;2023-05-07T02:35:40;96963.19;;;23.06;23.46
68141;BME280;54941;52.220;104.306;2023-05-07T02:38:06;96957.41;;;23.96;22.31
68141;BME280;54941;52.220;104.306;2023-05-07T02:40:32;96960.84;;;22.86;23.90
68141;BME280;54941;52.220;104.306;2023-05-07T02:42:59;96961.16;;;22.20;24.19
68141;BME280;54941;52.220;104.306;2023-05-07T02:45:25;96968.00;;;23.44;23.07
68141;BME280;54941;52.220;104.306;2023-05-07T02:47:52;96961.25;;;23.51;23.05
68141;BME280;54941;52.220;104.306;2023-05-07T02:50:19;96969.91;;;22.39;24.16
68141;BME280;54941;52.220;104.306;2023-05-07T02:52:46;96969.44;;;23.35;22.96
68141;BME280;54941;52.220;104.306;2023-05-07T02:55:12;96968.91;;;22.86;23.02
68141;BME280;54941;52.220;104.306;2023-05-07T02:57:38;96973.66;;;21.42;25.98
68141;BME280;54941;52.220;104.306;2023-05-07T03:00:12;96962.13;;;24.07;22.31
68141;BME280;54941;52.220;104.306;2023-05-07T03:02:39;96968.47;;;22.78;24.32
68141;BME280;54941;52.220;104.306;2023-05-07T03:05:06;96957.03;;;24.02;22.87
68141;BME280;54941;52.220;104.306;2023-05-07T03:07:34;96966.44;;;23.54;24.12
68141;BME280;54941;52.220;104.306;2023-05-07T03:10:00;96965.75;;;22.63;25.02
68141;BME280;54941;52.220;104.306;2023-05-07T03:12:26;96970.59;;;24.42;22.96
68141;BME280;54941;52.220;104.306;2023-05-07T03:14:53;96967.41;;;23.81;23.87
68141;BME280;54941;52.220;104.306;2023-05-07T03:17:20;96958.97;;;24.54;22.92
68141;BME280;54941;52.220;104.306;2023-05-07T03:19:47;96947.41;;;24.25;23.08
68141;BME280;54941;52.220;104.306;2023-05-07T03:22:13;96953.94;;;23.67;24.07
68141;BME280;54941;52.220;104.306;2023-05-07T03:24:41;96956.72;;;23.51;24.35
68141;BME280;54941;52.220;104.306;2023-05-07T03:27:07;96960.44;;;22.92;25.46
68141;BME280;54941;52.220;104.306;2023-05-07T03:29:33;96960.41;;;22.78;25.10
68141;BME280;54941;52.220;104.306;2023-05-07T03:32:00;96964.38;;;21.95;26.50
68141;BME280;54941;52.220;104.306;2023-05-07T03:34:26;96956.94;;;22.16;25.98
68141;BME280;54941;52.220;104.306;2023-05-07T03:36:52;96956.41;;;22.25;27.29
68141;BME280;54941;52.220;104.306;2023-05-07T03:39:20;96948.28;;;23.84;24.18
68141;BME280;54941;52.220;104.306;2023-05-07T03:41:48;96938.63;;;23.68;23.93
68141;BME280;54941;52.220;104.306;2023-05-07T03:44:14;96939.88;;;24.03;24.90
68141;BME280;54941;52.220;104.306;2023-05-07T03:46:40;96947.22;;;24.01;24.12
68141;BME280;54941;52.220;104.306;2023-05-07T03:49:06;96935.63;;;24.26;24.04
68141;BME280;54941;52.220;104.306;2023-05-07T03:51:33;96937.44;;;23.72;24.93
68141;BME280;54941;52.220;104.306;2023-05-07T03:53:59;96936.97;;;22.50;26.80
68141;BME280;54941;52.220;104.306;2023-05-07T03:56:25;96938.97;;;21.69;26.90
68141;BME280;54941;52.220;104.306;2023-05-07T03:58:53;96929.50;;;23.83;25.16
68141;BME280;54941;52.220;104.306;2023-05-07T04:01:19;96939.50;;;21.91;26.60
68141;BME280;54941;52.220;104.306;2023-05-07T04:03:46;96932.81;;;22.88;25.50
68141;BME280;54941;52.220;104.306;2023-05-07T04:06:12;96930.75;;;22.78;25.67
68141;BME280;54941;52.220;104.306;2023-05-07T04:08:38;96930.16;;;23.31;25.05
68141;BME280;54941;52.220;104.306;2023-05-07T04:11:04;96930.25;;;23.01;25.19
68141;BME280;54941;52.220;104.306;2023-05-07T04:13:31;96929.66;;;23.53;24.71
68141;BME280;54941;52.220;104.306;2023-05-07T04:16:00;96931.81;;;22.75;25.55
68141;BME280;54941;52.220;104.306;2023-05-07T04:18:27;96925.78;;;22.11;26.57
68141;BME280;54941;52.220;104.306;2023-05-07T04:20:53;96921.44;;;21.93;26.94
68141;BME280;54941;52.220;104.306;2023-05-07T04:23:19;96919.09;;;22.93;25.28
68141;BME280;54941;52.220;104.306;2023-05-07T04:25:46;96915.56;;;23.76;24.41
68141;BME280;54941;52.220;104.306;2023-05-07T04:28:12;96921.91;;;22.31;26.01
68141;BME280;54941;52.220;104.306;2023-05-07T04:30:39;96918.78;;;22.53;25.96
68141;BME280;54941;52.220;104.306;2023-05-07T04:33:07;96915.44;;;22.94;25.22
68141;BME280;54941;52.220;104.306;2023-05-07T04:35:33;96909.06;;;22.51;26.38
68141;BME280;54941;52.220;104.306;2023-05-07T04:37:59;96907.22;;;22.37;25.88
68141;BME280;54941;52.220;104.306;2023-05-07T04:40:26;96902.00;;;21.72;26.83
68141;BME280;54941;52.220;104.306;2023-05-07T04:42:52;96898.81;;;21.66;27.02
68141;BME280;54941;52.220;104.306;2023-05-07T04:45:18;96888.41;;;21.60;27.50
68141;BME280;54941;52.220;104.306;2023-05-07T04:47:45;96885.63;;;22.23;26.95
68141;BME280;54941;52.220;104.306;2023-05-07T04:50:12;96880.84;;;21.82;26.62
68141;BME280;54941;52.220;104.306;2023-05-07T04:52:39;96881.53;;;21.70;26.71
68141;BME280;54941;52.220;104.306;2023-05-07T04:55:06;96883.28;;;21.39;27.01
68141;BME280;54941;52.220;104.306;2023-05-07T04:57:32;96880.16;;;21.63;27.29
68141;BME280;54941;52.220;104.306;2023-05-07T04:59:59;96868.38;;;21.49;28.15
68141;BME280;54941;52.220;104.306;2023-05-07T05:02:25;96871.19;;;20.99;27.93
68141;BME280;54941;52.220;104.306;2023-05-07T05:04:51;96871.13;;;21.64;26.76
68141;BME280;54941;52.220;104.306;2023-05-07T05:07:19;96869.25;;;21.34;27.18
68141;BME280;54941;52.220;104.306;2023-05-07T05:09:45;96867.22;;;20.73;28.07
68141;BME280;54941;52.220;104.306;2023-05-07T05:12:12;96868.69;;;20.46;28.88
68141;BME280;54941;52.220;104.306;2023-05-07T05:14:38;96863.25;;;19.95;29.48
68141;BME280;54941;52.220;104.306;2023-05-07T05:17:04;96857.84;;;19.78;29.90
68141;BME280;54941;52.220;104.306;2023-05-07T05:19:31;96864.56;;;19.87;30.23
68141;BME280;54941;52.220;104.306;2023-05-07T05:21:57;96855.56;;;20.39;29.82
68141;BME280;54941;52.220;104.306;2023-05-07T05:24:25;96850.28;;;20.88;28.57
68141;BME280;54941;52.220;104.306;2023-05-07T05:26:53;96859.03;;;20.42;29.22
68141;BME280;54941;52.220;104.306;2023-05-07T05:29:19;96853.53;;;20.10;29.10
68141;BME280;54941;52.220;104.306;2023-05-07T05:31:45;96846.03;;;20.51;28.90
68141;BME280;54941;52.220;104.306;2023-05-07T05:34:12;96845.91;;;20.70;28.57
68141;BME280;54941;52.220;104.306;2023-05-07T05:36:38;96843.25;;;20.86;27.93
68141;BME280;54941;52.220;104.306;2023-05-07T05:39:04;96842.78;;;20.62;28.41
68141;BME280;54941;52.220;104.306;2023-05-07T05:41:32;96845.22;;;20.32;29.10
68141;BME280;54941;52.220;104.306;2023-05-07T05:43:58;96838.31;;;20.28;28.55
68141;BME280;54941;52.220;104.306;2023-05-07T05:46:25;96844.09;;;20.03;29.26
68141;BME280;54941;52.220;104.306;2023-05-07T05:48:51;96843.41;;;20.32;29.07
68141;BME280;54941;52.220;104.306;2023-05-07T05:51:17;96849.25;;;20.40;28.70
68141;BME280;54941;52.220;104.306;2023-05-07T05:53:44;96838.13;;;19.79;29.57
68141;BME280;54941;52.220;104.306;2023-05-07T05:56:10;96832.84;;;19.60;29.95
68141;BME280;54941;52.220;104.306;2023-05-07T05:58:38;96829.16;;;19.97;29.56
68141;BME280;54941;52.220;104.306;2023-05-07T06:01:04;96828.28;;;20.31;29.45
68141;BME280;54941;52.220;104.306;2023-05-07T06:03:31;96813.69;;;20.20;29.26
68141;BME280;54941;52.220;104.306;2023-05-07T06:05:57;96806.06;;;20.62;29.13
68141;BME280;54941;52.220;104.306;2023-05-07T06:08:24;96807.84;;;21.11;28.06
68141;BME280;54941;52.220;104.306;2023-05-07T06:10:50;96808.94;;;20.91;28.20
68141;BME280;54941;52.220;104.306;2023-05-07T06:13:16;96809.81;;;19.91;29.75
68141;BME280;54941;52.220;104.306;2023-05-07T06:15:44;96805.38;;;20.42;29.43
68141;BME280;54941;52.220;104.306;2023-05-07T06:18:10;96806.72;;;20.33;29.18
68141;BME280;54941;52.220;104.306;2023-05-07T06:20:37;96809.44;;;19.98;29.84
68141;BME280;54941;52.220;104.306;2023-05-07T06:23:03;96796.06;;;20.31;29.31
68141;BME280;54941;52.220;104.306;2023-05-07T06:25:29;96791.00;;;19.92;29.66
68141;BME280;54941;52.220;104.306;2023-05-07T06:27:55;96796.59;;;20.05;30.13
68141;BME280;54941;52.220;104.306;2023-05-07T06:30:22;96799.72;;;20.13;29.02
68141;BME280;54941;52.220;104.306;2023-05-07T06:32:49;96793.59;;;19.94;29.30
68141;BME280;54941;52.220;104.306;2023-05-07T06:35:16;96789.41;;;20.05;29.58
68141;BME280;54941;52.220;104.306;2023-05-07T06:37:42;96785.22;;;20.17;29.42
68141;BME280;54941;52.220;104.306;2023-05-07T06:40:09;96780.63;;;20.19;29.03
68141;BME280;54941;52.220;104.306;2023-05-07T06:42:36;96781.28;;;20.07;29.51
68141;BME280;54941;52.220;104.306;2023-05-07T06:45:02;96773.78;;;19.96;29.76
68141;BME280;54941;52.220;104.306;2023-05-07T06:47:31;96772.66;;;20.00;29.97
68141;BME280;54941;52.220;104.306;2023-05-07T06:49:59;96771.28;;;19.76;30.04
68141;BME280;54941;52.220;104.306;2023-05-07T06:52:25;96777.16;;;19.48;30.50
68141;BME280;54941;52.220;104.306;2023-05-07T06:54:51;96767.66;;;19.23;30.63
68141;BME280;54941;52.220;104.306;2023-05-07T06:57:18;96770.13;;;19.45;30.10
68141;BME280;54941;52.220;104.306;2023-05-07T06:59:44;96771.22;;;19.41;30.71
68141;BME280;54941;52.220;104.306;2023-05-07T07:02:10;96770.19;;;19.44;30.68
68141;BME280;54941;52.220;104.306;2023-05-07T07:04:36;96759.69;;;19.58;30.93
68141;BME280;54941;52.220;104.306;2023-05-07T07:07:04;96751.25;;;19.83;30.26
68141;BME280;54941;52.220;104.306;2023-05-07T07:09:31;96752.50;;;19.76;30.90
68141;BME280;54941;52.220;104.306;2023-05-07T07:11:57;96757.38;;;19.85;30.27
68141;BME280;54941;52.220;104.306;2023-05-07T07:14:24;96741.81;;;20.09;29.27
68141;BME280;54941;52.220;104.306;2023-05-07T07:16:51;96745.16;;;19.97;29.12
68141;BME280;54941;52.220;104.306;2023-05-07T07:19:17;96743.75;;;19.72;29.83
68141;BME280;54941;52.220;104.306;2023-05-07T07:21:43;96738.72;;;19.84;29.67
68141;BME280;54941;52.220;104.306;2023-05-07T07:24:11;96736.25;;;19.79;29.59
68141;BME280;54941;52.220;104.306;2023-05-07T07:26:37;96732.16;;;19.72;30.05
68141;BME280;54941;52.220;104.306;2023-05-07T07:29:04;96726.25;;;19.83;29.33
68141;BME280;54941;52.220;104.306;2023-05-07T07:31:30;96728.28;;;19.77;29.00
68141;BME280;54941;52.220;104.306;2023-05-07T07:33:56;96723.78;;;19.95;28.80
68141;BME280;54941;52.220;104.306;2023-05-07T07:36:22;96723.56;;;19.83;29.71
68141;BME280;54941;52.220;104.306;2023-05-07T07:38:49;96721.44;;;19.72;29.91
68141;BME280;54941;52.220;104.306;2023-05-07T07:41:17;96725.66;;;19.41;30.85
68141;BME280;54941;52.220;104.306;2023-05-07T07:43:43;96716.91;;;19.57;30.51
68141;BME280;54941;52.220;104.306;2023-05-07T07:46:09;96716.47;;;19.81;30.48
68141;BME280;54941;52.220;104.306;2023-05-07T07:48:36;96713.25;;;19.58;31.03
68141;BME280;54941;52.220;104.306;2023-05-07T07:51:03;96714.47;;;19.50;30.50
68141;BME280;54941;52.220;104.306;2023-05-07T07:53:29;96701.22;;;19.99;30.40
68141;BME280;54941;52.220;104.306;2023-05-07T07:55:56;96707.00;;;19.92;30.34
68141;BME280;54941;52.220;104.306;2023-05-07T07:58:23;96700.03;;;20.05;30.29
68141;BME280;54941;52.220;104.306;2023-05-07T08:00:50;96700.81;;;20.07;29.82
68141;BME280;54941;52.220;104.306;2023-05-07T08:03:16;96695.31;;;19.93;29.97
68141;BME280;54941;52.220;104.306;2023-05-07T08:05:42;96702.03;;;19.67;30.20
68141;BME280;54941;52.220;104.306;2023-05-07T08:08:09;96688.72;;;19.65;30.03
68141;BME280;54941;52.220;104.306;2023-05-07T08:10:36;96694.06;;;19.48;30.23
68141;BME280;54941;52.220;104.306;2023-05-07T08:13:03;96693.69;;;19.38;30.34
68141;BME280;54941;52.220;104.306;2023-05-07T08:15:31;96688.38;;;19.54;30.39
68141;BME280;54941;52.220;104.306;2023-05-07T08:17:58;96685.88;;;19.51;29.92
68141;BME280;54941;52.220;104.306;2023-05-07T08:20:24;96684.84;;;19.53;30.19
68141;BME280;54941;52.220;104.306;2023-05-07T08:22:51;96685.72;;;19.37;30.71
68141;BME280;54941;52.220;104.306;2023-05-07T08:25:18;96683.53;;;19.45;30.41
68141;BME280;54941;52.220;104.306;2023-05-07T08:27:44;96687.28;;;19.23;30.89
68141;BME280;54941;52.220;104.306;2023-05-07T08:30:11;96685.84;;;18.99;31.12
68141;BME280;54941;52.220;104.306;2023-05-07T08:32:39;96689.59;;;18.95;31.29
68141;BME280;54941;52.220;104.306;2023-05-07T08:35:06;96685.34;;;18.91;31.46
68141;BME280;54941;52.220;104.306;2023-05-07T08:37:33;96680.22;;;19.22;30.90
68141;BME280;54941;52.220;104.306;2023-05-07T08:39:59;96674.34;;;19.32;30.74
68141;BME280;54941;52.220;104.306;2023-05-07T08:42:27;96676.25;;;19.30;30.77
68141;BME280;54941;52.220;104.306;2023-05-07T08:44:57;96674.44;;;19.47;30.31
68141;BME280;54941;52.220;104.306;2023-05-07T08:47:29;96670.66;;;19.17;30.37
68141;BME280;54941;52.220;104.306;2023-05-07T08:49:58;96671.91;;;19.27;30.05
68141;BME280;54941;52.220;104.306;2023-05-07T08:52:24;96666.50;;;19.46;29.90
68141;BME280;54941;52.220;104.306;2023-05-07T08:54:51;96660.25;;;19.28;30.14
68141;BME280;54941;52.220;104.306;2023-05-07T08:57:17;96661.13;;;19.29;30.43
68141;BME280;54941;52.220;104.306;2023-05-07T08:59:44;96669.84;;;19.32;29.84
68141;BME280;54941;52.220;104.306;2023-05-07T09:02:10;96661.13;;;19.46;29.85
68141;BME280;54941;52.220;104.306;2023-05-07T09:04:37;96668.84;;;19.35;29.93
68141;BME280;54941;52.220;104.306;2023-05-07T09:07:05;96661.03;;;19.30;29.99
68141;BME280;54941;52.220;104.306;2023-05-07T09:09:32;96663.94;;;19.43;29.86
68141;BME280;54941;52.220;104.306;2023-05-07T09:11:59;96661.44;;;19.40;29.92
68141;BME280;54941;52.220;104.306;2023-05-07T09:14:26;96659.00;;;19.35;29.93
68141;BME280;54941;52.220;104.306;2023-05-07T09:16:52;96654.19;;;19.07;30.05
68141;BME280;54941;52.220;104.306;2023-05-07T09:19:23;96654.66;;;19.15;29.95
68141;BME280;54941;52.220;104.306;2023-05-07T09:21:49;96651.53;;;19.24;29.81
68141;BME280;54941;52.220;104.306;2023-05-07T09:24:17;96651.66;;;19.21;30.11
68141;BME280;54941;52.220;104.306;2023-05-07T09:26:43;96655.94;;;19.26;29.88
68141;BME280;54941;52.220;104.306;2023-05-07T09:29:10;96657.59;;;19.28;29.66
68141;BME280;54941;52.220;104.306;2023-05-07T09:31:37;96660.97;;;19.14;30.21
68141;BME280;54941;52.220;104.306;2023-05-07T09:34:04;96664.88;;;19.07;30.35
68141;BME280;54941;52.220;104.306;2023-05-07T09:36:32;96659.53;;;19.07;30.48
68141;BME280;54941;52.220;104.306;2023-05-07T09:38:59;96664.28;;;19.02;30.42
68141;BME280;54941;52.220;104.306;2023-05-07T09:41:30;96667.81;;;19.03;30.14
68141;BME280;54941;52.220;104.306;2023-05-07T09:43:56;96669.84;;;18.98;30.39
68141;BME280;54941;52.220;104.306;2023-05-07T09:46:27;96660.75;;;18.65;30.54
68141;BME280;54941;52.220;104.306;2023-05-07T09:48:57;96651.25;;;18.77;30.46
68141;BME280;54941;52.220;104.306;2023-05-07T09:51:28;96660.41;;;18.90;30.58
68141;BME280;54941;52.220;104.306;2023-05-07T09:53:56;96660.16;;;18.95;30.46
68141;BME280;54941;52.220;104.306;2023-05-07T09:56:23;96656.69;;;18.93;30.63
68141;BME280;54941;52.220;104.306;2023-05-07T09:58:53;96650.75;;;18.86;30.93
68141;BME280;54941;52.220;104.306;2023-05-07T10:01:20;96657.16;;;18.84;30.79
68141;BME280;54941;52.220;104.306;2023-05-07T10:03:48;96650.97;;;18.64;30.85
68141;BME280;54941;52.220;104.306;2023-05-07T10:06:15;96648.78;;;18.54;30.83
68141;BME280;54941;52.220;104.306;2023-05-07T10:08:43;96647.19;;;18.50;31.15
68141;BME280;54941;52.220;104.306;2023-05-07T10:11:10;96644.53;;;18.69;31.28
68141;BME280;54941;52.220;104.306;2023-05-07T10:13:37;96649.16;;;18.46;31.33
68141;BME280;54941;52.220;104.306;2023-05-07T10:16:05;96652.34;;;18.35;31.73
68141;BME280;54941;52.220;104.306;2023-05-07T10:18:32;96645.91;;;18.40;31.58
68141;BME280;54941;52.220;104.306;2023-05-07T10:21:02;96644.75;;;18.45;31.46
68141;BME280;54941;52.220;104.306;2023-05-07T10:23:31;96648.06;;;18.50;31.31
68141;BME280;54941;52.220;104.306;2023-05-07T10:25:59;96655.59;;;18.42;31.38
68141;BME280;54941;52.220;104.306;2023-05-07T10:28:29;96645.34;;;18.33;31.38
68141;BME280;54941;52.220;104.306;2023-05-07T10:31:07;96639.84;;;18.36;31.30
68141;BME280;54941;52.220;104.306;2023-05-07T10:33:39;96649.53;;;18.20;31.62
68141;BME280;54941;52.220;104.306;2023-05-07T10:36:06;96650.63;;;18.34;31.53
68141;BME280;54941;52.220;104.306;2023-05-07T10:38:32;96647.06;;;18.34;31.54
68141;BME280;54941;52.220;104.306;2023-05-07T10:40:59;96639.03;;;18.34;31.54
68141;BME280;54941;52.220;104.306;2023-05-07T10:43:25;96641.28;;;18.24;31.88
68141;BME280;54941;52.220;104.306;2023-05-07T10:46:14;96641.94;;;18.11;32.02
68141;BME280;54941;52.220;104.306;2023-05-07T10:49:08;96639.69;;;18.01;32.01
68141;BME280;54941;52.220;104.306;2023-05-07T10:51:35;96638.22;;;17.94;32.31
68141;BME280;54941;52.220;104.306;2023-05-07T10:54:21;96634.91;;;17.89;32.23
68141;BME280;54941;52.220;104.306;2023-05-07T10:56:47;96639.53;;;18.04;31.83
68141;BME280;54941;52.220;104.306;2023-05-07T10:59:46;96632.88;;;17.94;31.80
68141;BME280;54941;52.220;104.306;2023-05-07T11:02:14;96638.13;;;17.97;31.80
68141;BME280;54941;52.220;104.306;2023-05-07T11:04:40;96633.91;;;17.92;31.88
68141;BME280;54941;52.220;104.306;2023-05-07T11:07:27;96635.94;;;18.05;31.17
68141;BME280;54941;52.220;104.306;2023-05-07T11:09:55;96637.53;;;17.91;31.64
68141;BME280;54941;52.220;104.306;2023-05-07T11:12:52;96637.44;;;17.92;31.40
68141;BME280;54941;52.220;104.306;2023-05-07T11:15:41;96637.75;;;17.86;31.69
68141;BME280;54941;52.220;104.306;2023-05-07T11:18:09;96639.88;;;17.78;32.06
68141;BME280;54941;52.220;104.306;2023-05-07T11:20:55;96644.59;;;17.73;31.89
68141;BME280;54941;52.220;104.306;2023-05-07T11:23:56;96645.22;;;17.58;31.94
68141;BME280;54941;52.220;104.306;2023-05-07T11:26:23;96643.00;;;17.48;32.04
68141;BME280;54941;52.220;104.306;2023-05-07T11:28:49;96635.03;;;17.47;32.00
68141;BME280;54941;52.220;104.306;2023-05-07T11:31:21;96632.72;;;17.39;32.04
68141;BME280;54941;52.220;104.306;2023-05-07T11:33:49;96631.09;;;17.35;32.08
68141;BME280;54941;52.220;104.306;2023-05-07T11:36:15;96623.97;;;17.15;32.49
68141;BME280;54941;52.220;104.306;2023-05-07T11:38:41;96626.97;;;17.28;32.16
68141;BME280;54941;52.220;104.306;2023-05-07T11:41:08;96628.31;;;17.18;32.27
68141;BME280;54941;52.220;104.306;2023-05-07T11:43:34;96628.56;;;17.12;32.24
68141;BME280;54941;52.220;104.306;2023-05-07T11:46:09;96631.38;;;17.09;32.25
68141;BME280;54941;52.220;104.306;2023-05-07T11:48:36;96633.69;;;16.96;32.67
68141;BME280;54941;52.220;104.306;2023-05-07T11:51:05;96638.47;;;16.88;32.75
68141;BME280;54941;52.220;104.306;2023-05-07T11:53:37;96638.28;;;17.13;32.10
68141;BME280;54941;52.220;104.306;2023-05-07T11:56:08;96648.91;;;16.94;32.19
68141;BME280;54941;52.220;104.306;2023-05-07T11:58:34;96648.03;;;16.94;32.09
68141;BME280;54941;52.220;104.306;2023-05-07T12:01:01;96638.56;;;16.86;32.01
68141;BME280;54941;52.220;104.306;2023-05-07T12:03:27;96641.56;;;16.79;32.21
68141;BME280;54941;52.220;104.306;2023-05-07T12:05:54;96651.22;;;16.81;32.00
68141;BME280;54941;52.220;104.306;2023-05-07T12:08:22;96649.28;;;16.63;32.25
68141;BME280;54941;52.220;104.306;2023-05-07T12:10:49;96653.19;;;16.54;32.54
68141;BME280;54941;52.220;104.306;2023-05-07T12:13:16;96660.94;;;16.39;32.95
68141;BME280;54941;52.220;104.306;2023-05-07T12:15:44;96651.88;;;16.43;32.61
68141;BME280;54941;52.220;104.306;2023-05-07T12:18:11;96661.00;;;16.37;32.97
68141;BME280;54941;52.220;104.306;2023-05-07T12:20:38;96659.91;;;16.19;33.44
68141;BME280;54941;52.220;104.306;2023-05-07T12:23:05;96664.69;;;16.11;33.28
68141;BME280;54941;52.220;104.306;2023-05-07T12:25:34;96665.09;;;16.00;33.58
68141;BME280;54941;52.220;104.306;2023-05-07T12:28:01;96666.97;;;15.98;33.39
68141;BME280;54941;52.220;104.306;2023-05-07T12:30:28;96666.72;;;15.81;33.47
68141;BME280;54941;52.220;104.306;2023-05-07T12:32:54;96678.09;;;15.61;34.41
68141;BME280;54941;52.220;104.306;2023-05-07T12:35:27;96670.88;;;15.40;34.44
68141;BME280;54941;52.220;104.306;2023-05-07T12:37:55;96681.13;;;15.26;35.13
68141;BME280;54941;52.220;104.306;2023-05-07T12:40:21;96680.56;;;15.16;34.99
68141;BME280;54941;52.220;104.306;2023-05-07T12:42:53;96687.59;;;14.92;35.79